Time;durP1;ratioP1;P1;durP2;ratioP2;P2;SDS_P1;SDS_P2;PMS_P1;PMS_P2;Temp;Humidity;BMP_temperature;BMP_pressure;BME280_temperature;BME280_humidity;BME280_pressure;Samples;Min_cycle;Max_cycle;Signal;HPM_P1;HPM_P2
2023/06/29 00:02:25;;;;;;;3.42;3.10;;;18.40;99.90;;;;;;5053372;28;20025;-59
2023/06/29 00:04:53;;;;;;;2.83;2.53;;;18.40;99.90;;;;;;5043126;28;20082;-60
2023/06/29 00:07:20;;;;;;;2.97;2.63;;;18.40;99.90;;;;;;5061961;28;20033;-60
2023/06/29 00:09:47;;;;;;;2.83;2.63;;;18.40;99.90;;;;;;5054313;28;20021;-60
2023/06/29 00:12:13;;;;;;;2.95;2.75;;;18.40;99.90;;;;;;5058725;28;20013;-60
2023/06/29 00:14:38;;;;;;;2.72;2.53;;;18.40;99.90;;;;;;5050160;28;20038;-60
2023/06/29 00:17:04;;;;;;;4.60;3.40;;;18.40;99.90;;;;;;5056738;28;20383;-59
2023/06/29 00:19:30;;;;;;;3.05;2.78;;;18.40;99.90;;;;;;5060709;28;20021;-60
2023/06/29 00:21:57;;;;;;;2.63;2.42;;;18.40;99.90;;;;;;5043855;28;20033;-60
2023/06/29 00:24:23;;;;;;;3.72;2.65;;;18.40;99.90;;;;;;5040777;28;20100;-58
2023/06/29 00:26:49;;;;;;;3.10;2.80;;;18.40;99.90;;;;;;5046174;28;20183;-60
2023/06/29 00:29:14;;;;;;;4.55;3.38;;;18.40;99.90;;;;;;5052545;28;20040;-58
2023/06/29 00:31:40;;;;;;;5.22;3.53;;;18.40;99.90;;;;;;5043764;28;20033;-60
2023/06/29 00:34:05;;;;;;;4.20;3.00;;;18.30;99.90;;;;;;5030616;28;20090;-60
2023/06/29 00:36:31;;;;;;;3.22;2.92;;;18.30;99.90;;;;;;5052985;28;20028;-60
2023/06/29 00:38:56;;;;;;;4.45;2.85;;;18.30;99.90;;;;;;5059981;28;20491;-60
2023/06/29 00:41:22;;;;;;;4.35;3.20;;;18.30;99.90;;;;;;5055821;28;20024;-60
2023/06/29 00:43:47;;;;;;;3.45;2.60;;;18.30;99.90;;;;;;5052310;28;20071;-60
2023/06/29 00:46:18;;;;;;;3.25;2.55;;;18.30;99.90;;;;;;5044893;28;20025;-59
2023/06/29 00:48:43;;;;;;;2.97;2.78;;;18.30;99.90;;;;;;5060693;28;20024;-60
2023/06/29 00:51:09;;;;;;;2.65;2.45;;;18.30;99.90;;;;;;5063724;28;20081;-60
2023/06/29 00:53:35;;;;;;;2.63;2.40;;;18.20;99.90;;;;;;5052471;28;20106;-59
2023/06/29 00:56:02;;;;;;;4.15;3.05;;;18.30;99.90;;;;;;5066781;28;20063;-60
2023/06/29 00:58:28;;;;;;;3.05;2.75;;;18.30;99.90;;;;;;5058593;28;20017;-60
2023/06/29 01:00:55;;;;;;;3.88;2.92;;;18.30;99.90;;;;;;5057098;28;20036;-60
2023/06/29 01:03:22;;;;;;;3.13;2.70;;;18.20;99.90;;;;;;5060385;28;20021;-59
2023/06/29 01:05:53;;;;;;;5.80;3.83;;;18.20;99.90;;;;;;5051522;28;20047;-59
2023/06/29 01:08:35;;;;;;;3.83;3.28;;;18.20;99.90;;;;;;5058962;28;20570;-60
2023/06/29 01:11:03;;;;;;;3.50;3.20;;;18.20;99.90;;;;;;5056010;28;20027;-60
2023/06/29 01:13:29;;;;;;;4.65;3.55;;;18.30;99.90;;;;;;5043782;28;20036;-59
2023/06/29 01:15:56;;;;;;;5.68;3.90;;;18.20;99.90;;;;;;5060265;28;20024;-60
2023/06/29 01:18:23;;;;;;;4.88;3.25;;;18.30;99.90;;;;;;5055713;28;20024;-60
2023/06/29 01:20:49;;;;;;;3.80;3.50;;;18.20;99.90;;;;;;5062855;28;20024;-59
2023/06/29 01:23:23;;;;;;;5.22;3.30;;;18.20;99.90;;;;;;5048671;28;20032;-60
2023/06/29 01:25:50;;;;;;;5.82;3.95;;;18.20;99.90;;;;;;5052686;28;20089;-60
2023/06/29 01:28:16;;;;;;;5.45;3.67;;;18.20;99.90;;;;;;5044812;28;20024;-59
2023/06/29 01:30:49;;;;;;;7.07;5.10;;;18.20;99.90;;;;;;5051931;28;20029;-59
2023/06/29 01:33:21;;;;;;;4.13;3.72;;;18.20;99.90;;;;;;5032321;28;20029;-59
2023/06/29 01:35:47;;;;;;;7.28;4.05;;;18.20;99.90;;;;;;5054336;28;20060;-59
2023/06/29 01:38:19;;;;;;;8.55;4.35;;;18.20;99.90;;;;;;5048674;28;20021;-58
2023/06/29 01:40:48;;;;;;;6.13;4.50;;;18.20;99.90;;;;;;5057376;28;20013;-60
2023/06/29 01:43:15;;;;;;;5.25;3.88;;;18.10;99.90;;;;;;5053904;28;20044;-60
2023/06/29 01:45:41;;;;;;;5.50;4.10;;;18.20;99.90;;;;;;5052652;28;20032;-59
2023/06/29 01:48:07;;;;;;;4.53;3.80;;;18.20;99.90;;;;;;5048416;28;20029;-60
2023/06/29 01:50:32;;;;;;;5.25;4.07;;;18.20;99.90;;;;;;5065596;28;20561;-60
2023/06/29 01:52:58;;;;;;;5.03;4.07;;;18.10;99.90;;;;;;5056406;28;20044;-60
2023/06/29 01:55:24;;;;;;;4.65;4.05;;;18.10;99.90;;;;;;5054408;28;20026;-60
2023/06/29 01:57:49;;;;;;;3.75;3.45;;;18.10;99.90;;;;;;5047565;28;20040;-59
2023/06/29 02:00:16;;;;;;;4.75;4.07;;;18.10;99.90;;;;;;5056501;28;20044;-60
2023/06/29 02:02:42;;;;;;;4.93;3.60;;;18.10;99.90;;;;;;5056038;28;20152;-59
2023/06/29 02:05:08;;;;;;;5.30;4.53;;;18.10;99.90;;;;;;5064558;28;20156;-59
2023/06/29 02:07:33;;;;;;;4.45;4.05;;;18.10;99.90;;;;;;5058490;28;20036;-60
2023/06/29 02:09:59;;;;;;;5.60;3.70;;;18.10;99.90;;;;;;5050609;28;20032;-60
2023/06/29 02:12:25;;;;;;;4.28;3.78;;;18.00;99.90;;;;;;5060601;28;20040;-60
2023/06/29 02:14:50;;;;;;;3.88;3.55;;;18.00;99.90;;;;;;5061791;28;20040;-60
2023/06/29 02:17:16;;;;;;;5.18;4.78;;;18.00;99.90;;;;;;5058790;28;20024;-59
2023/06/29 02:19:42;;;;;;;4.60;3.55;;;18.00;99.90;;;;;;5058609;28;20017;-59
2023/06/29 02:22:07;;;;;;;4.57;4.18;;;18.00;99.90;;;;;;5046697;28;20505;-59
2023/06/29 02:24:34;;;;;;;8.18;6.45;;;18.00;99.90;;;;;;5056178;28;20075;-60
2023/06/29 02:27:01;;;;;;;5.35;4.65;;;18.00;99.90;;;;;;5046285;28;20090;-60
2023/06/29 02:29:26;;;;;;;5.43;4.90;;;18.00;99.90;;;;;;5047321;28;20095;-59
2023/06/29 02:31:52;;;;;;;5.13;4.65;;;18.00;99.90;;;;;;5057279;28;20522;-59
2023/06/29 02:34:17;;;;;;;6.45;5.38;;;18.00;99.90;;;;;;5060217;28;20493;-60
2023/06/29 02:36:43;;;;;;;4.97;4.45;;;18.00;99.90;;;;;;5061366;28;20033;-60
2023/06/29 02:39:08;;;;;;;6.30;4.80;;;18.00;99.90;;;;;;5064881;28;20085;-57
2023/06/29 02:41:34;;;;;;;9.20;6.30;;;18.00;99.90;;;;;;5068275;28;20475;-60
2023/06/29 02:43:59;;;;;;;6.57;5.97;;;18.00;99.90;;;;;;5054734;28;20507;-60
2023/06/29 02:46:25;;;;;;;5.63;5.10;;;18.00;99.90;;;;;;5036668;28;20132;-58
2023/06/29 02:48:50;;;;;;;7.40;6.72;;;18.00;99.90;;;;;;5056203;28;20062;-60
2023/06/29 02:51:16;;;;;;;5.95;5.07;;;18.00;99.90;;;;;;5053644;28;20021;-60
2023/06/29 02:53:41;;;;;;;5.95;5.18;;;18.00;99.90;;;;;;5065158;28;20040;-60
2023/06/29 02:56:07;;;;;;;5.47;4.97;;;18.00;99.90;;;;;;5064412;28;20029;-58
2023/06/29 02:58:33;;;;;;;5.43;4.53;;;18.00;99.90;;;;;;5053448;28;20115;-60
2023/06/29 03:00:58;;;;;;;6.32;4.80;;;18.00;99.90;;;;;;5034012;28;20048;-59
2023/06/29 03:03:23;;;;;;;6.07;5.45;;;18.00;99.90;;;;;;5055456;28;20024;-61
2023/06/29 03:05:49;;;;;;;6.00;5.40;;;18.00;99.90;;;;;;5056078;28;20036;-60
2023/06/29 03:08:15;;;;;;;6.25;5.63;;;17.90;99.90;;;;;;5059333;28;20033;-60
2023/06/29 03:10:40;;;;;;;6.85;6.22;;;17.90;99.90;;;;;;5065552;28;20046;-60
2023/06/29 03:13:06;;;;;;;5.60;5.10;;;17.90;99.90;;;;;;5050571;28;20123;-59
2023/06/29 03:15:31;;;;;;;5.20;4.70;;;17.90;99.90;;;;;;5054252;28;20055;-58
2023/06/29 03:17:57;;;;;;;5.82;5.32;;;17.90;99.90;;;;;;5060265;28;20559;-60
2023/06/29 03:20:22;;;;;;;6.00;5.45;;;17.90;99.90;;;;;;5054298;28;20025;-59
2023/06/29 03:22:48;;;;;;;6.00;5.45;;;17.90;99.90;;;;;;5059130;28;20125;-60
2023/06/29 03:25:13;;;;;;;7.88;7.05;;;17.90;99.90;;;;;;5060004;28;20028;-60
2023/06/29 03:27:39;;;;;;;8.20;7.13;;;17.90;99.90;;;;;;5050818;28;20044;-60
2023/06/29 03:30:05;;;;;;;8.35;7.10;;;17.90;99.90;;;;;;5047454;28;20036;-58
2023/06/29 03:32:31;;;;;;;9.32;8.32;;;17.90;99.90;;;;;;5059354;28;20402;-60
2023/06/29 03:34:56;;;;;;;9.90;8.65;;;17.90;99.90;;;;;;5062848;28;20099;-58
2023/06/29 03:37:22;;;;;;;10.20;9.20;;;18.00;99.90;;;;;;5056470;28;20037;-61
2023/06/29 03:39:47;;;;;;;10.68;9.57;;;18.00;99.90;;;;;;5058388;28;20785;-59
2023/06/29 03:42:13;;;;;;;12.18;10.38;;;18.00;99.90;;;;;;5055436;28;20021;-60
2023/06/29 03:44:39;;;;;;;10.15;9.15;;;18.00;99.90;;;;;;5051564;28;20445;-59
2023/06/29 03:47:06;;;;;;;10.65;9.68;;;18.00;99.90;;;;;;5057459;28;20032;-59
2023/06/29 03:49:32;;;;;;;12.98;10.27;;;18.00;99.90;;;;;;5050091;28;20479;-60
2023/06/29 03:51:57;;;;;;;13.82;12.48;;;18.00;99.90;;;;;;5055413;28;20090;-60
2023/06/29 03:54:23;;;;;;;13.20;11.32;;;18.00;99.90;;;;;;5056332;28;20437;-59
2023/06/29 03:56:49;;;;;;;15.32;13.70;;;18.00;99.90;;;;;;5062507;28;20036;-60
2023/06/29 03:59:14;;;;;;;15.35;13.85;;;18.00;99.90;;;;;;5059847;28;20025;-60
2023/06/29 04:01:40;;;;;;;14.32;12.93;;;18.00;99.90;;;;;;5059184;28;20071;-60
2023/06/29 04:04:05;;;;;;;14.70;12.98;;;18.00;99.90;;;;;;5063198;28;20089;-58
2023/06/29 04:06:31;;;;;;;17.02;15.10;;;18.10;99.90;;;;;;5058694;28;20013;-60
2023/06/29 04:08:56;;;;;;;14.52;13.05;;;18.10;99.90;;;;;;5044503;28;20154;-60
2023/06/29 04:11:22;;;;;;;15.25;13.82;;;18.10;99.90;;;;;;5055336;28;20082;-60
2023/06/29 04:13:47;;;;;;;16.58;14.77;;;18.10;99.90;;;;;;5059801;28;20084;-59
2023/06/29 04:16:13;;;;;;;17.38;15.68;;;18.10;99.90;;;;;;5056083;28;20461;-60
2023/06/29 04:18:39;;;;;;;17.20;15.13;;;18.10;99.90;;;;;;5061678;28;20483;-60
2023/06/29 04:21:04;;;;;;;21.83;17.70;;;18.10;99.90;;;;;;5055909;28;20024;-59
2023/06/29 04:23:30;;;;;;;19.70;17.63;;;18.20;99.90;;;;;;5064339;28;20355;-60
2023/06/29 04:25:55;;;;;;;16.70;15.02;;;18.20;99.90;;;;;;5054522;28;20530;-60
2023/06/29 04:28:21;;;;;;;21.35;17.45;;;18.20;99.90;;;;;;5049999;28;20033;-60
2023/06/29 04:30:46;;;;;;;17.75;15.93;;;18.20;99.90;;;;;;5055257;28;20039;-61
2023/06/29 04:33:14;;;;;;;18.40;16.45;;;18.20;99.90;;;;;;5047916;28;20397;-59
2023/06/29 04:35:44;;;;;;;19.88;17.73;;;18.20;99.90;;;;;;5055706;28;20032;-59
2023/06/29 04:38:10;;;;;;;21.08;18.83;;;18.20;99.90;;;;;;5054706;28;20387;-60
2023/06/29 04:40:39;;;;;;;16.88;15.07;;;18.20;99.90;;;;;;5040521;28;20025;-59
2023/06/29 04:43:06;;;;;;;21.75;19.50;;;18.30;99.90;;;;;;5059297;28;20029;-57
2023/06/29 04:45:32;;;;;;;21.27;19.15;;;18.30;99.90;;;;;;5050310;28;20052;-60
2023/06/29 04:47:59;;;;;;;22.65;20.27;;;18.30;99.90;;;;;;5042247;28;20056;-60
2023/06/29 04:50:25;;;;;;;22.48;20.08;;;18.40;99.90;;;;;;5047557;28;20052;-59
2023/06/29 04:52:55;;;;;;;24.30;21.75;;;18.40;99.90;;;;;;5060800;28;20073;-60
2023/06/29 04:55:21;;;;;;;25.55;22.17;;;18.40;99.90;;;;;;5057324;28;20044;-59
2023/06/29 04:57:47;;;;;;;21.60;18.75;;;18.40;99.90;;;;;;5047711;28;20029;-58
2023/06/29 05:00:14;;;;;;;24.10;19.58;;;18.50;99.90;;;;;;5056412;28;20104;-60
2023/06/29 05:02:40;;;;;;;23.58;21.00;;;18.50;99.90;;;;;;5050187;28;20028;-60
2023/06/29 05:05:06;;;;;;;24.25;21.02;;;18.60;99.90;;;;;;5058391;28;20475;-60
2023/06/29 05:07:32;;;;;;;21.90;19.50;;;18.70;99.90;;;;;;5050601;28;20078;-61
2023/06/29 05:09:58;;;;;;;22.63;20.05;;;18.70;99.90;;;;;;5044624;28;20378;-59
2023/06/29 05:12:24;;;;;;;22.42;19.38;;;18.80;99.90;;;;;;5047596;28;20614;-60
2023/06/29 05:14:49;;;;;;;21.50;18.73;;;18.80;99.90;;;;;;5059099;28;20021;-59
2023/06/29 05:17:15;;;;;;;25.10;19.23;;;18.90;99.90;;;;;;5037521;28;20097;-60
2023/06/29 05:19:41;;;;;;;20.55;18.00;;;18.90;99.90;;;;;;5062238;28;20030;-60
2023/06/29 05:22:06;;;;;;;21.42;19.10;;;18.90;99.90;;;;;;5032138;28;20501;-61
2023/06/29 05:24:32;;;;;;;22.05;19.73;;;19.00;99.90;;;;;;5049548;28;20024;-59
2023/06/29 05:26:57;;;;;;;26.52;21.00;;;19.00;99.90;;;;;;5043512;28;20083;-58
2023/06/29 05:29:24;;;;;;;20.35;18.00;;;19.00;99.90;;;;;;5055410;28;20064;-60
2023/06/29 05:31:49;;;;;;;22.15;17.98;;;19.00;99.90;;;;;;5041953;28;20040;-60
2023/06/29 05:34:15;;;;;;;24.92;20.08;;;19.10;99.90;;;;;;5041653;28;20459;-60
2023/06/29 05:36:41;;;;;;;20.80;17.38;;;19.10;99.90;;;;;;5048813;28;20048;-60
2023/06/29 05:39:06;;;;;;;21.90;18.08;;;19.10;99.90;;;;;;5043627;28;20074;-61
2023/06/29 05:41:32;;;;;;;18.17;16.13;;;19.10;99.90;;;;;;5052084;28;20013;-59
2023/06/29 05:43:58;;;;;;;22.35;19.63;;;19.20;99.90;;;;;;5055177;28;20095;-59
2023/06/29 05:46:23;;;;;;;21.20;18.70;;;19.20;99.90;;;;;;5060044;28;20760;-60
2023/06/29 05:48:49;;;;;;;19.23;16.95;;;19.20;99.90;;;;;;5042066;28;20036;-60
2023/06/29 05:51:14;;;;;;;18.75;16.65;;;19.20;99.90;;;;;;5039761;28;20025;-59
2023/06/29 05:53:40;;;;;;;20.50;18.25;;;19.30;99.90;;;;;;5040650;28;20059;-60
2023/06/29 05:56:05;;;;;;;18.90;16.88;;;19.30;99.90;;;;;;5056064;28;20056;-61
2023/06/29 05:58:31;;;;;;;18.15;16.05;;;19.40;99.90;;;;;;5061437;28;20024;-60
2023/06/29 06:00:57;;;;;;;19.58;15.90;;;19.40;99.90;;;;;;5055246;28;20029;-60
2023/06/29 06:03:23;;;;;;;22.80;18.63;;;19.40;99.90;;;;;;5061104;28;20048;-61
2023/06/29 06:05:49;;;;;;;19.17;16.08;;;19.50;99.90;;;;;;5058884;28;20036;-59
2023/06/29 06:08:14;;;;;;;17.40;14.95;;;19.50;99.90;;;;;;5040226;28;20475;-61
2023/06/29 06:10:40;;;;;;;24.65;17.20;;;19.50;99.90;;;;;;5061472;28;20474;-61
2023/06/29 06:13:06;;;;;;;22.83;17.40;;;19.50;99.90;;;;;;5058015;28;20020;-60
2023/06/29 06:15:31;;;;;;;20.17;15.45;;;19.50;99.90;;;;;;5056258;28;20032;-60
2023/06/29 06:17:57;;;;;;;16.83;14.20;;;19.50;99.90;;;;;;5050700;28;20035;-60
2023/06/29 06:20:22;;;;;;;20.55;16.27;;;19.50;99.90;;;;;;5039136;28;20025;-60
2023/06/29 06:22:48;;;;;;;25.08;18.42;;;19.60;99.90;;;;;;5059778;28;20023;-59
2023/06/29 06:25:17;;;;;;;18.63;14.57;;;19.70;99.90;;;;;;5058952;28;20079;-61
2023/06/29 06:27:43;;;;;;;18.55;15.43;;;19.80;99.90;;;;;;5051419;28;20043;-60
2023/06/29 06:30:09;;;;;;;23.63;17.30;;;19.90;99.90;;;;;;5054953;28;20038;-60
2023/06/29 06:32:38;;;;;;;20.27;15.43;;;19.90;99.90;;;;;;5050046;28;20029;-60
2023/06/29 06:35:07;;;;;;;19.48;16.05;;;20.00;99.90;;;;;;5047118;28;20466;-60
2023/06/29 06:37:35;;;;;;;16.88;13.40;;;20.00;99.90;;;;;;5056690;28;20027;-60
2023/06/29 06:40:00;;;;;;;22.45;16.40;;;20.10;99.90;;;;;;5070053;28;20494;-61
2023/06/29 06:42:26;;;;;;;18.23;15.27;;;20.20;99.90;;;;;;5056302;28;20094;-60
2023/06/29 06:44:53;;;;;;;21.70;16.15;;;20.30;99.90;;;;;;5056836;28;20104;-62
2023/06/29 06:47:19;;;;;;;23.20;15.20;;;20.30;99.90;;;;;;5042867;28;20029;-61
2023/06/29 06:49:46;;;;;;;18.77;15.32;;;20.40;99.90;;;;;;5059435;28;20472;-60
2023/06/29 06:52:11;;;;;;;21.92;16.38;;;20.40;99.90;;;;;;5063980;28;20036;-61
2023/06/29 06:54:37;;;;;;;21.80;17.48;;;20.50;99.90;;;;;;5036322;28;20033;-60
2023/06/29 06:57:03;;;;;;;20.75;16.05;;;20.60;99.90;;;;;;5067482;28;20056;-61
2023/06/29 06:59:28;;;;;;;19.88;15.13;;;20.60;99.90;;;;;;5039812;28;20031;-60
2023/06/29 07:01:54;;;;;;;19.55;15.23;;;20.70;99.90;;;;;;5032977;28;20116;-60
2023/06/29 07:04:19;;;;;;;27.25;17.17;;;20.80;99.90;;;;;;5057460;28;20025;-60
2023/06/29 07:06:46;;;;;;;20.05;14.77;;;20.80;99.90;;;;;;5060408;28;20039;-60
2023/06/29 07:09:12;;;;;;;14.82;13.23;;;20.90;99.90;;;;;;5062945;28;20025;-61
2023/06/29 07:11:37;;;;;;;18.60;15.32;;;21.00;99.90;;;;;;5054650;28;20174;-61
2023/06/29 07:14:04;;;;;;;20.27;14.57;;;21.10;99.90;;;;;;5064671;28;20431;-59
2023/06/29 07:16:29;;;;;;;21.85;14.95;;;21.10;99.90;;;;;;5060614;28;20130;-60
2023/06/29 07:19:07;;;;;;;21.80;16.33;;;21.10;99.90;;;;;;5058628;28;20638;-59
2023/06/29 07:21:32;;;;;;;20.75;15.65;;;21.20;99.90;;;;;;5062608;28;20027;-61
2023/06/29 07:23:58;;;;;;;22.45;16.02;;;21.40;99.90;;;;;;5041605;28;20025;-61
2023/06/29 07:26:24;;;;;;;24.27;16.67;;;21.60;99.90;;;;;;5064061;28;20024;-59
2023/06/29 07:28:50;;;;;;;22.17;16.60;;;21.70;99.90;;;;;;5052886;28;20623;-60
2023/06/29 07:31:16;;;;;;;21.45;15.23;;;21.70;99.90;;;;;;5063912;28;20032;-61
2023/06/29 07:33:41;;;;;;;16.40;14.57;;;21.90;99.90;;;;;;5060708;28;20058;-61
2023/06/29 07:36:07;;;;;;;20.70;15.15;;;22.00;99.90;;;;;;5047318;28;20447;-61
2023/06/29 07:38:33;;;;;;;21.25;16.38;;;22.10;99.90;;;;;;5059171;28;20055;-62
2023/06/29 07:40:58;;;;;;;20.30;15.15;;;22.30;99.90;;;;;;5066473;28;20070;-61
2023/06/29 07:43:24;;;;;;;19.80;16.00;;;22.40;99.90;;;;;;5063577;28;20024;-60
2023/06/29 07:45:49;;;;;;;20.98;15.75;;;22.50;99.90;;;;;;5054458;28;20436;-61
2023/06/29 07:48:15;;;;;;;20.23;14.27;;;22.70;99.90;;;;;;5059792;28;20491;-62
2023/06/29 07:50:40;;;;;;;18.15;13.55;;;22.90;99.90;;;;;;5056372;28;20372;-62
2023/06/29 07:53:07;;;;;;;18.20;14.13;;;23.10;99.90;;;;;;5055219;28;20033;-62
2023/06/29 07:55:34;;;;;;;19.85;15.18;;;23.30;99.90;;;;;;5061445;28;20020;-62
2023/06/29 07:58:00;;;;;;;17.52;14.18;;;23.50;99.90;;;;;;5057950;28;20111;-61
2023/06/29 08:00:25;;;;;;;18.98;13.52;;;23.50;99.90;;;;;;5061891;28;20487;-60
2023/06/29 08:02:51;;;;;;;24.08;15.48;;;23.50;99.90;;;;;;5058409;28;20025;-62
2023/06/29 08:05:17;;;;;;;19.83;12.48;;;23.60;99.90;;;;;;5063819;28;20027;-62
2023/06/29 08:07:43;;;;;;;19.45;13.82;;;23.70;99.90;;;;;;5057804;28;20031;-61
2023/06/29 08:10:09;;;;;;;19.55;13.23;;;23.70;99.90;;;;;;5050953;28;20021;-62
2023/06/29 08:12:35;;;;;;;16.83;13.38;;;23.80;99.90;;;;;;5056622;28;20040;-61
2023/06/29 08:15:00;;;;;;;17.95;12.23;;;23.80;99.90;;;;;;5056052;28;20029;-62
2023/06/29 08:17:26;;;;;;;17.45;13.93;;;23.80;99.90;;;;;;5049826;28;20605;-62
2023/06/29 08:19:51;;;;;;;17.58;13.40;;;23.80;99.90;;;;;;5050829;28;20020;-62
2023/06/29 08:22:17;;;;;;;23.83;13.98;;;23.70;99.90;;;;;;5064060;28;20025;-60
2023/06/29 08:24:42;;;;;;;19.92;14.80;;;23.70;99.90;;;;;;5059882;28;20425;-61
2023/06/29 08:27:08;;;;;;;16.17;13.63;;;23.80;99.90;;;;;;5056693;28;20041;-62
2023/06/29 08:29:34;;;;;;;19.27;14.35;;;23.60;99.90;;;;;;5059430;28;20509;-62
2023/06/29 08:31:59;;;;;;;18.15;13.38;;;23.60;99.90;;;;;;5058844;28;20495;-62
2023/06/29 08:34:25;;;;;;;17.25;12.73;;;23.60;99.90;;;;;;5059436;28;20029;-61
2023/06/29 08:36:50;;;;;;;20.67;13.25;;;23.60;99.90;;;;;;5062450;28;20622;-60
2023/06/29 08:39:16;;;;;;;21.85;14.07;;;23.60;99.90;;;;;;5058528;28;20072;-63
2023/06/29 08:41:42;;;;;;;18.67;13.73;;;23.70;99.90;;;;;;5060529;28;20021;-61
2023/06/29 08:44:07;;;;;;;19.25;13.43;;;23.80;99.90;;;;;;5050779;28;20109;-64
2023/06/29 08:46:35;;;;;;;20.60;13.07;;;23.90;99.90;;;;;;5063808;28;20028;-62
2023/06/29 08:49:02;;;;;;;20.13;12.18;;;24.00;99.90;;;;;;5055986;28;20017;-63
2023/06/29 08:51:28;;;;;;;15.88;12.35;;;24.20;99.90;;;;;;5063602;28;20048;-62
2023/06/29 08:53:54;;;;;;;23.52;15.07;;;24.20;99.90;;;;;;5056291;28;20104;-61
2023/06/29 08:56:23;;;;;;;17.58;14.05;;;24.20;99.90;;;;;;5055073;28;20408;-60
2023/06/29 08:58:49;;;;;;;17.88;14.18;;;24.10;99.90;;;;;;5055110;28;20027;-62
2023/06/29 09:01:16;;;;;;;22.55;14.02;;;24.20;99.90;;;;;;5046936;28;20059;-62
2023/06/29 09:03:42;;;;;;;16.95;13.20;;;24.10;99.90;;;;;;5063043;28;20120;-62
2023/06/29 09:06:09;;;;;;;23.52;16.80;;;24.10;99.90;;;;;;5058095;28;20032;-61
2023/06/29 09:08:37;;;;;;;17.77;13.20;;;24.10;99.90;;;;;;5045216;28;20039;-62
2023/06/29 09:11:02;;;;;;;19.67;13.82;;;24.20;99.90;;;;;;5058945;28;20028;-62
2023/06/29 09:13:28;;;;;;;19.88;15.60;;;24.40;99.90;;;;;;5040905;28;20017;-61
2023/06/29 09:15:54;;;;;;;18.67;13.23;;;24.40;99.90;;;;;;5052344;28;20020;-61
2023/06/29 09:18:24;;;;;;;22.42;15.18;;;24.40;99.90;;;;;;5051723;28;20127;-61
2023/06/29 09:20:51;;;;;;;21.30;15.52;;;24.20;99.90;;;;;;5053312;28;20040;-61
2023/06/29 09:23:16;;;;;;;23.33;15.18;;;24.20;99.90;;;;;;5065005;28;20046;-61
2023/06/29 09:25:42;;;;;;;18.80;13.40;;;24.10;99.90;;;;;;5053076;28;20491;-62
2023/06/29 09:28:08;;;;;;;18.15;14.13;;;24.00;99.90;;;;;;5056951;28;20024;-60
2023/06/29 09:30:38;;;;;;;17.60;12.50;;;24.10;99.90;;;;;;5036335;28;20036;-61
2023/06/29 09:33:11;;;;;;;18.65;12.88;;;24.10;99.90;;;;;;5056068;28;20029;-61
2023/06/29 09:35:40;;;;;;;19.48;13.80;;;24.20;99.90;;;;;;5054769;28;20028;-61
2023/06/29 09:38:06;;;;;;;20.88;15.20;;;24.10;99.90;;;;;;5061088;28;20082;-60
2023/06/29 09:40:31;;;;;;;17.77;12.05;;;24.10;99.90;;;;;;5058964;28;20033;-61
2023/06/29 09:43:01;;;;;;;17.52;14.05;;;24.10;99.90;;;;;;5061311;28;20024;-61
2023/06/29 09:45:30;;;;;;;19.35;13.20;;;24.20;99.90;;;;;;5057046;28;20083;-61
2023/06/29 09:47:55;;;;;;;17.75;13.75;;;24.20;99.90;;;;;;5053219;28;20028;-60
2023/06/29 09:50:24;;;;;;;17.45;13.57;;;24.30;99.90;;;;;;5056151;28;20035;-62
2023/06/29 09:52:55;;;;;;;17.70;13.68;;;24.50;99.90;;;;;;5049115;28;20033;-60
2023/06/29 09:55:28;;;;;;;23.08;15.23;;;24.60;99.90;;;;;;5059869;28;20047;-61
2023/06/29 09:57:56;;;;;;;15.48;12.65;;;24.70;99.90;;;;;;5049355;28;20036;-61
2023/06/29 10:00:22;;;;;;;24.33;14.82;;;24.80;99.90;;;;;;5037479;28;21092;-62
2023/06/29 10:02:47;;;;;;;19.90;14.40;;;24.90;99.90;;;;;;5039246;28;20047;-62
2023/06/29 10:05:13;;;;;;;19.95;15.90;;;25.00;99.90;;;;;;5062115;28;20029;-61
2023/06/29 10:07:41;;;;;;;24.52;16.10;;;24.90;99.90;;;;;;5057214;28;20033;-62
2023/06/29 10:10:10;;;;;;;19.27;15.32;;;24.90;99.90;;;;;;5041888;28;20024;-62
2023/06/29 10:12:36;;;;;;;24.40;15.98;;;25.00;99.90;;;;;;5064205;28;20090;-64
2023/06/29 10:15:09;;;;;;;24.27;16.80;;;25.10;99.90;;;;;;5060645;28;20021;-64
2023/06/29 10:17:55;;;;;;;24.38;15.52;;;25.20;99.90;;;;;;5064306;28;20686;-62
2023/06/29 10:20:24;;;;;;;19.98;15.20;;;25.30;99.90;;;;;;5042091;28;20025;-64
2023/06/29 10:22:51;;;;;;;23.38;16.80;;;25.40;99.90;;;;;;5051658;28;20023;-63
2023/06/29 10:25:19;;;;;;;20.30;16.20;;;25.40;99.90;;;;;;5060927;28;20021;-63
2023/06/29 10:27:46;;;;;;;20.65;15.52;;;25.40;99.90;;;;;;5061486;28;20020;-62
2023/06/29 10:30:17;;;;;;;21.17;15.73;;;25.30;99.90;;;;;;5058360;28;20068;-61
2023/06/29 10:32:49;;;;;;;20.75;16.30;;;25.30;99.90;;;;;;5061653;28;20025;-61
2023/06/29 10:35:15;;;;;;;23.40;16.83;;;25.30;99.90;;;;;;5064908;28;20502;-62
2023/06/29 10:37:42;;;;;;;24.35;15.50;;;25.10;99.90;;;;;;5044989;28;20029;-64
2023/06/29 10:40:10;;;;;;;24.90;15.63;;;25.10;99.90;;;;;;5049219;28;20028;-61
2023/06/29 10:42:39;;;;;;;22.58;15.75;;;25.00;99.90;;;;;;5060379;28;20024;-61
2023/06/29 10:45:21;;;;;;;24.02;15.95;;;24.90;99.90;;;;;;5060964;28;20021;-62
2023/06/29 10:48:12;;;;;;;22.33;17.00;;;24.60;99.90;;;;;;5064993;28;20017;-59
2023/06/29 10:50:43;;;;;;;20.50;15.15;;;24.50;99.90;;;;;;5059758;28;20083;-61
2023/06/29 10:53:11;;;;;;;18.08;15.18;;;24.40;99.90;;;;;;5066960;28;20052;-60
2023/06/29 10:55:42;;;;;;;20.63;14.52;;;24.40;99.90;;;;;;5061210;28;20066;-62
2023/06/29 10:58:20;;;;;;;20.90;14.32;;;24.40;99.90;;;;;;5067660;28;20016;-59
2023/06/29 11:00:47;;;;;;;19.88;14.40;;;24.50;99.90;;;;;;5059503;28;20021;-62
2023/06/29 11:03:14;;;;;;;18.90;14.40;;;24.40;99.90;;;;;;5062902;28;20062;-63
2023/06/29 11:05:40;;;;;;;17.67;14.45;;;24.40;99.90;;;;;;5063093;28;20545;-62
2023/06/29 11:08:07;;;;;;;17.30;12.90;;;24.40;99.90;;;;;;5044976;28;20024;-63
2023/06/29 11:10:33;;;;;;;18.83;12.85;;;24.40;99.90;;;;;;5065886;28;20149;-63
2023/06/29 11:12:58;;;;;;;21.80;14.82;;;24.50;99.90;;;;;;5062062;28;20099;-61
2023/06/29 11:15:27;;;;;;;16.40;13.25;;;24.50;99.90;;;;;;5055660;28;20021;-61
2023/06/29 11:17:53;;;;;;;18.38;12.82;;;24.50;99.90;;;;;;5048766;28;20111;-63
2023/06/29 11:20:22;;;;;;;18.13;13.15;;;24.50;99.90;;;;;;5059519;28;20533;-63
2023/06/29 11:22:48;;;;;;;19.80;13.57;;;24.50;99.90;;;;;;5061698;28;20391;-61
2023/06/29 11:25:15;;;;;;;16.35;12.68;;;24.50;99.90;;;;;;5062121;28;20051;-61
2023/06/29 11:27:42;;;;;;;15.02;12.77;;;24.60;99.90;;;;;;5052199;28;20028;-62
2023/06/29 11:30:10;;;;;;;17.30;12.13;;;24.60;99.90;;;;;;5040745;28;20111;-61
2023/06/29 11:32:36;;;;;;;13.70;11.25;;;24.60;99.90;;;;;;5052473;28;20112;-62
2023/06/29 11:35:10;;;;;;;19.13;12.35;;;24.70;99.90;;;;;;5065051;28;20063;-62
2023/06/29 11:37:37;;;;;;;16.00;10.93;;;24.70;99.90;;;;;;5053081;28;20025;-62
2023/06/29 11:40:07;;;;;;;16.48;10.48;;;24.60;99.90;;;;;;5064421;28;20070;-62
2023/06/29 11:42:36;;;;;;;15.00;10.15;;;24.70;99.90;;;;;;5053299;28;20029;-60
2023/06/29 11:45:02;;;;;;;15.77;11.63;;;24.80;99.90;;;;;;5048320;28;20056;-62
2023/06/29 11:47:28;;;;;;;15.27;11.35;;;24.70;99.90;;;;;;5055873;28;20045;-61
2023/06/29 11:49:59;;;;;;;18.45;12.95;;;24.70;99.90;;;;;;5059132;28;20056;-64
2023/06/29 11:52:32;;;;;;;14.63;11.60;;;24.60;99.90;;;;;;5048348;28;20635;-64
2023/06/29 11:55:10;;;;;;;16.20;12.18;;;24.50;99.90;;;;;;5052114;28;20024;-62
2023/06/29 11:57:37;;;;;;;17.35;11.68;;;24.50;99.90;;;;;;5056481;28;20021;-61
2023/06/29 12:00:24;;;;;;;15.40;11.25;;;24.50;99.90;;;;;;5054442;28;20112;-62
2023/06/29 12:02:50;;;;;;;14.55;11.23;;;24.50;99.90;;;;;;5055081;28;20119;-62
2023/06/29 12:05:16;;;;;;;15.85;10.57;;;24.40;99.90;;;;;;5059548;28;20042;-61
2023/06/29 12:07:46;;;;;;;19.55;10.70;;;24.40;99.90;;;;;;5051558;28;20060;-61
2023/06/29 12:10:16;;;;;;;13.35;10.45;;;24.40;99.90;;;;;;5058509;28;20036;-62
2023/06/29 12:12:46;;;;;;;15.70;9.73;;;24.30;99.90;;;;;;5055055;28;20033;-63
2023/06/29 12:15:17;;;;;;;14.63;9.52;;;24.30;99.90;;;;;;5057677;28;20112;-60
2023/06/29 12:17:44;;;;;;;16.80;10.05;;;24.30;99.90;;;;;;5049530;28;20068;-62
2023/06/29 12:20:25;;;;;;;14.13;10.40;;;24.30;99.90;;;;;;5057187;28;20017;-61
2023/06/29 12:22:55;;;;;;;14.98;10.50;;;24.30;99.90;;;;;;5044948;28;20043;-60
2023/06/29 12:25:21;;;;;;;12.13;9.27;;;24.30;99.90;;;;;;5042878;28;20102;-59
2023/06/29 12:27:48;;;;;;;11.75;10.25;;;24.40;99.90;;;;;;5055302;28;20016;-63
2023/06/29 12:30:20;;;;;;;14.70;11.32;;;24.30;99.90;;;;;;5056437;28;20703;-62
2023/06/29 12:32:46;;;;;;;16.05;12.48;;;24.30;99.90;;;;;;5040521;28;20046;-61